Time,TemperatureF,DewpointF,PressureIn,WindDirection,WindDirectionDegrees,WindSpeedMPH,WindSpeedGustMPH,Humidity,HourlyPrecipIn,Conditions,Clouds,dailyrainin,SoftwareType,DateUTC
2013-04-18 15:49:00,74.2,42.4,30.20,WSW,237,10.0,11.0,32,0.00,,,0.00,Wunderground v.1.15,2013-04-18 22:49:00,
2013-04-18 15:54:00,74.2,40.8,30.20,West,266,11.0,14.0,30,0.00,,,0.00,Wunderground v.1.15,2013-04-18 22:54:00,
2013-04-18 15:59:00,74.0,42.3,30.20,WSW,252,8.0,14.0,32,0.00,,,0.00,Wunderground v.1.15,2013-04-18 22:59:00,
2013-04-18 16:00:00,74.0,42.3,30.20,WSW,249,6.0,10.0,32,0.00,,,0.00,Wunderground v.1.15,2013-04-18 23:00:00,
2013-04-18 16:04:00,73.9,40.5,30.20,WSW,243,10.0,14.0,30,0.00,,,0.00,Wunderground v.1.15,2013-04-18 23:04:00,
2013-04-18 16:05:00,73.9,41.3,30.20,WSW,251,10.0,14.0,31,0.00,,,0.00,Wunderground v.1.15,2013-04-18 23:05:00,
2013-04-18 16:09:00,74.2,42.4,30.20,SW,236,10.0,14.0,32,0.00,,,0.00,Wunderground v.1.15,2013-04-18 23:09:00,
2013-04-18 16:10:00,74.2,42.4,30.20,WSW,245,11.0,12.0,32,0.00,,,0.00,Wunderground v.1.15,2013-04-18 23:10:00,
2013-04-18 16:11:00,74.3,42.5,30.20,SW,232,13.0,14.0,32,0.00,,,0.00,Wunderground v.1.15,2013-04-18 23:11:00,
2013-04-18 16:15:00,73.8,41.3,30.20,WSW,244,7.0,15.0,31,0.00,,,0.00,Wunderground v.1.15,2013-04-18 23:15:00,
2013-04-18 16:16:00,74.0,42.3,30.20,WSW,240,12.0,15.0,32,0.00,,,0.00,Wunderground v.1.15,2013-04-18 23:16:00,
2013-04-18 16:20:00,74.3,43.3,30.20,West,276,8.0,10.0,33,0.00,,,0.00,Wunderground v.1.15,2013-04-18 23:20:00,
2013-04-18 16:21:00,74.3,42.5,30.20,SW,231,10.0,14.0,32,0.00,,,0.00,Wunderground v.1.15,2013-04-18 23:21:00,
2013-04-18 16:25:00,73.9,40.5,30.20,SW,233,9.0,17.0,30,0.00,,,0.00,Wunderground v.1.15,2013-04-18 23:25:00,
2013-04-18 16:26:00,73.7,41.2,30.20,WSW,245,13.0,17.0,31,0.00,,,0.00,Wunderground v.1.15,2013-04-18 23:26:00,
2013-04-18 16:30:00,73.3,41.6,30.20,West,262,8.0,10.0,32,0.00,,,0.00,Wunderground v.1.15,2013-04-18 23:30:00,
2013-04-18 16:31:00,73.4,41.7,30.20,WSW,241,10.0,11.0,32,0.00,,,0.00,Wunderground v.1.15,2013-04-18 23:31:00,
2013-04-18 16:32:00,73.4,41.7,30.20,WSW,241,10.0,15.0,32,0.00,,,0.00,Wunderground v.1.15,2013-04-18 23:32:00,
2013-04-18 16:35:00,73.0,42.2,30.19,SW,233,11.0,17.0,33,0.00,,,0.00,Wunderground v.1.15,2013-04-18 23:35:00,
2013-04-18 16:36:00,73.0,43.0,30.20,West,260,12.0,17.0,34,0.00,,,0.00,Wunderground v.1.15,2013-04-18 23:36:00,
2013-04-18 16:37:00,73.0,43.0,30.20,WSW,256,8.0,17.0,34,0.00,,,0.00,Wunderground v.1.15,2013-04-18 23:37:00,
2013-04-18 16:40:00,73.2,43.9,30.19,West,273,3.0,10.0,35,0.00,,,0.00,Wunderground v.1.15,2013-04-18 23:40:00,
2013-04-18 16:41:00,73.5,43.4,30.19,SW,233,7.0,11.0,34,0.00,,,0.00,Wunderground v.1.15,2013-04-18 23:41:00,
2013-04-18 16:42:00,73.7,43.6,30.19,SW,229,10.0,13.0,34,0.00,,,0.00,Wunderground v.1.15,2013-04-18 23:42:00,
2013-04-18 16:45:00,73.4,41.7,30.20,West,270,5.0,13.0,32,0.00,,,0.00,Wunderground v.1.15,2013-04-18 23:45:00,
2013-04-18 16:46:00,73.6,41.9,30.20,West,269,6.0,13.0,32,0.00,,,0.00,Wunderground v.1.15,2013-04-18 23:46:00,
2013-04-18 16:48:00,73.5,41.0,30.19,SW,233,9.0,14.0,31,0.00,,,0.00,Wunderground v.1.15,2013-04-18 23:48:00,
2013-04-18 16:50:00,73.6,41.9,30.20,SW,231,5.0,10.0,32,0.00,,,0.00,Wunderground v.1.15,2013-04-18 23:50:00,
2013-04-18 16:51:00,73.4,40.9,30.20,WSW,251,11.0,14.0,31,0.00,,,0.00,Wunderground v.1.15,2013-04-18 23:51:00,
2013-04-18 16:53:00,73.2,42.4,30.20,WSW,240,10.0,14.0,33,0.00,,,0.00,Wunderground v.1.15,2013-04-18 23:53:00,
2013-04-18 16:55:00,73.1,40.7,30.20,WSW,242,11.0,16.0,31,0.00,,,0.00,Wunderground v.1.15,2013-04-18 23:55:00,
2013-04-18 16:56:00,73.0,39.7,30.20,West,266,10.0,16.0,30,0.00,,,0.00,Wunderground v.1.15,2013-04-18 23:56:00,
2013-04-18 16:58:00,72.6,40.2,30.20,SW,236,9.0,16.0,31,0.00,,,0.00,Wunderground v.1.15,2013-04-18 23:58:00,
2013-04-18 16:59:00,72.7,41.1,30.20,WSW,243,6.0,16.0,32,0.00,,,0.00,Wunderground v.1.15,2013-04-18 23:59:00,
2013-04-18 17:01:00,72.6,40.2,30.20,WSW,251,9.0,11.0,31,0.00,,,0.00,Wunderground v.1.15,2013-04-19 00:01:00,
2013-04-18 17:02:00,72.6,41.0,30.20,West,274,8.0,13.0,32,0.00,,,0.00,Wunderground v.1.15,2013-04-19 00:02:00,
2013-04-18 17:03:00,72.7,41.9,30.20,West,272,5.0,13.0,33,0.00,,,0.00,Wunderground v.1.15,2013-04-19 00:03:00,
2013-04-18 17:04:00,72.8,41.2,30.20,West,276,4.0,13.0,32,0.00,,,0.00,Wunderground v.1.15,2013-04-19 00:04:00,
2013-04-18 17:06:00,73.0,38.9,30.20,West,267,6.0,13.0,29,0.00,,,0.00,Wunderground v.1.15,2013-04-19 00:06:00,
2013-04-18 17:07:00,73.0,38.9,30.20,WNW,288,12.0,13.0,29,0.00,,,0.00,Wunderground v.1.15,2013-04-19 00:07:00,
2013-04-18 17:08:00,73.0,38.9,30.20,WNW,285,6.0,13.0,29,0.00,,,0.00,Wunderground v.1.15,2013-04-19 00:08:00,
2013-04-18 17:09:00,73.0,39.7,30.20,West,268,6.0,13.0,30,0.00,,,0.00,Wunderground v.1.15,2013-04-19 00:09:00,
2013-04-18 17:11:00,73.1,40.7,30.20,West,265,5.0,10.0,31,0.00,,,0.00,Wunderground v.1.15,2013-04-19 00:11:00,
2013-04-18 17:12:00,73.1,40.7,30.20,WSW,257,7.0,10.0,31,0.00,,,0.00,Wunderground v.1.15,2013-04-19 00:12:00,
2013-04-18 17:14:00,73.0,40.6,30.20,SW,230,6.0,10.0,31,0.00,,,0.00,Wunderground v.1.15,2013-04-19 00:14:00,
2013-04-18 17:17:00,72.9,42.1,30.19,WNW,283,5.0,13.0,33,0.00,,,0.00,Wunderground v.1.15,2013-04-19 00:17:00,
2013-04-18 17:19:00,72.7,39.5,30.19,WSW,254,10.0,13.0,30,0.00,,,0.00,Wunderground v.1.15,2013-04-19 00:19:00,
2013-04-18 17:22:00,72.0,39.7,30.19,West,265,10.0,14.0,31,0.00,,,0.00,Wunderground v.1.15,2013-04-19 00:22:00,
2013-04-18 17:24:00,71.8,40.3,30.19,SW,233,12.0,14.0,32,0.00,,,0.00,Wunderground v.1.15,2013-04-19 00:24:00,
2013-04-18 17:25:00,71.8,40.3,30.19,WSW,248,8.0,14.0,32,0.00,,,0.00,Wunderground v.1.15,2013-04-19 00:25:00,
2013-04-18 17:27:00,71.9,39.6,30.19,WSW,253,12.0,14.0,31,0.00,,,0.00,Wunderground v.1.15,2013-04-19 00:27:00,
2013-04-18 17:29:00,71.8,39.5,30.19,West,260,10.0,14.0,31,0.00,,,0.00,Wunderground v.1.15,2013-04-19 00:29:00,
2013-04-18 17:30:00,71.7,39.4,30.19,West,275,9.0,11.0,31,0.00,,,0.00,Wunderground v.1.15,2013-04-19 00:30:00,
2013-04-18 17:32:00,71.7,39.4,30.19,West,270,14.0,16.0,31,0.00,,,0.00,Wunderground v.1.15,2013-04-19 00:32:00,
2013-04-18 17:34:00,71.4,39.2,30.20,West,264,13.0,16.0,31,0.00,,,0.00,Wunderground v.1.15,2013-04-19 00:34:00,
2013-04-18 17:35:00,71.2,39.0,30.19,WSW,258,12.0,16.0,31,0.00,,,0.00,Wunderground v.1.15,2013-04-19 00:35:00,
2013-04-18 17:37:00,71.0,39.6,30.19,West,271,8.0,16.0,32,0.00,,,0.00,Wunderground v.1.15,2013-04-19 00:37:00,
2013-04-18 17:38:00,71.0,38.8,30.19,WSW,246,9.0,16.0,31,0.00,,,0.00,Wunderground v.1.15,2013-04-19 00:38:00,
2013-04-18 17:39:00,70.9,39.6,30.19,West,268,7.0,16.0,32,0.00,,,0.00,Wunderground v.1.15,2013-04-19 00:39:00,
2013-04-18 17:40:00,70.9,39.6,30.19,WSW,250,11.0,15.0,32,0.00,,,0.00,Wunderground v.1.15,2013-04-19 00:40:00,
2013-04-18 17:42:00,70.6,37.6,30.19,West,264,13.0,16.0,30,0.00,,,0.00,Wunderground v.1.15,2013-04-19 00:42:00,
2013-04-18 17:43:00,70.6,37.6,30.19,WSW,255,8.0,16.0,30,0.00,,,0.00,Wunderground v.1.15,2013-04-19 00:43:00,
2013-04-18 17:44:00,70.6,38.5,30.19,WSW,251,8.0,16.0,31,0.00,,,0.00,Wunderground v.1.15,2013-04-19 00:44:00,
2013-04-18 17:46:00,70.6,39.3,30.19,West,276,12.0,16.0,32,0.00,,,0.00,Wunderground v.1.15,2013-04-19 00:46:00,
2013-04-18 17:47:00,70.6,39.3,30.19,West,272,10.0,19.0,32,0.00,,,0.00,Wunderground v.1.15,2013-04-19 00:47:00,
2013-04-18 17:48:00,70.6,39.3,30.19,West,265,10.0,19.0,32,0.00,,,0.00,Wunderground v.1.15,2013-04-19 00:48:00,
2013-04-18 17:49:00,70.6,40.1,30.19,West,274,8.0,19.0,33,0.00,,,0.00,Wunderground v.1.15,2013-04-19 00:49:00,
2013-04-18 17:51:00,70.7,39.4,30.19,West,266,14.0,18.0,32,0.00,,,0.00,Wunderground v.1.15,2013-04-19 00:51:00,
2013-04-18 17:53:00,70.5,38.4,30.19,WSW,251,10.0,18.0,31,0.00,,,0.00,Wunderground v.1.15,2013-04-19 00:53:00,
2013-04-18 17:55:00,70.3,39.0,30.19,WSW,255,11.0,18.0,32,0.00,,,0.00,Wunderground v.1.15,2013-04-19 00:55:00,
2013-04-18 17:56:00,70.3,39.8,30.19,WSW,258,9.0,18.0,33,0.00,,,0.00,Wunderground v.1.15,2013-04-19 00:56:00,
2013-04-18 17:58:00,70.3,39.0,30.19,WSW,245,4.0,18.0,32,0.00,,,0.00,Wunderground v.1.15,2013-04-19 00:58:00,
2013-04-18 18:00:00,70.6,39.3,30.19,West,273,5.0,10.0,32,0.00,,,0.00,Wunderground v.1.15,2013-04-19 01:00:00,
2013-04-18 18:02:00,70.7,38.6,30.20,West,270,8.0,15.0,31,0.00,,,0.00,Wunderground v.1.15,2013-04-19 01:02:00,
2013-04-18 18:03:00,70.7,38.6,30.19,West,262,9.0,15.0,31,0.00,,,0.00,Wunderground v.1.15,2013-04-19 01:03:00,
2013-04-18 18:04:00,70.7,39.4,30.19,WNW,298,8.0,15.0,32,0.00,,,0.00,Wunderground v.1.15,2013-04-19 01:04:00,
2013-04-18 18:05:00,70.8,39.5,30.20,WSW,247,6.0,15.0,32,0.00,,,0.00,Wunderground v.1.15,2013-04-19 01:05:00,
2013-04-18 18:07:00,71.0,39.6,30.20,WSW,247,4.0,15.0,32,0.00,,,0.00,Wunderground v.1.15,2013-04-19 01:07:00,
2013-04-18 18:08:00,71.0,39.6,30.20,West,272,10.0,15.0,32,0.00,,,0.00,Wunderground v.1.15,2013-04-19 01:08:00,
2013-04-18 18:09:00,71.0,39.6,30.20,WNW,283,4.0,15.0,32,0.00,,,0.00,Wunderground v.1.15,2013-04-19 01:09:00,
2013-04-18 18:10:00,71.1,39.7,30.20,West,279,7.0,9.0,32,0.00,,,0.00,Wunderground v.1.15,2013-04-19 01:10:00,
2013-04-18 18:12:00,71.1,39.7,30.20,WSW,251,3.0,9.0,32,0.00,,,0.00,Wunderground v.1.15,2013-04-19 01:12:00,
2013-04-18 18:13:00,71.2,39.8,30.20,WSW,248,8.0,9.0,32,0.00,,,0.00,Wunderground v.1.15,2013-04-19 01:13:00,
2013-04-18 18:14:00,71.0,39.6,30.19,SW,234,10.0,13.0,32,0.00,,,0.00,Wunderground v.1.15,2013-04-19 01:14:00,
2013-04-18 18:15:00,70.2,38.9,30.19,West,260,11.0,16.0,32,0.00,,,0.00,Wunderground v.1.15,2013-04-19 01:15:00,
2013-04-18 18:17:00,70.0,38.0,30.20,WSW,245,13.0,16.0,31,0.00,,,0.00,Wunderground v.1.15,2013-04-19 01:17:00,
2013-04-18 18:18:00,69.8,37.8,30.20,WSW,237,9.0,16.0,31,0.00,,,0.00,Wunderground v.1.15,2013-04-19 01:18:00,
2013-04-18 18:19:00,69.8,38.6,30.20,West,262,11.0,16.0,32,0.00,,,0.00,Wunderground v.1.15,2013-04-19 01:19:00,
2013-04-18 18:20:00,69.7,37.7,30.20,West,260,11.0,13.0,31,0.00,,,0.00,Wunderground v.1.15,2013-04-19 01:20:00,
2013-04-18 18:22:00,69.7,37.7,30.19,WSW,245,8.0,15.0,31,0.00,,,0.00,Wunderground v.1.15,2013-04-19 01:22:00,
2013-04-18 18:23:00,69.6,37.6,30.20,West,273,15.0,19.0,31,0.00,,,0.00,Wunderground v.1.15,2013-04-19 01:23:00,
2013-04-18 18:24:00,69.5,38.3,30.19,WSW,243,13.0,19.0,32,0.00,,,0.00,Wunderground v.1.15,2013-04-19 01:24:00,
2013-04-18 18:26:00,69.5,38.3,30.19,West,261,11.0,19.0,32,0.00,,,0.00,Wunderground v.1.15,2013-04-19 01:26:00,
2013-04-18 18:27:00,69.4,38.2,30.19,West,270,5.0,19.0,32,0.00,,,0.00,Wunderground v.1.15,2013-04-19 01:27:00,
2013-04-18 18:29:00,69.5,38.3,30.19,West,271,10.0,19.0,32,0.00,,,0.00,Wunderground v.1.15,2013-04-19 01:29:00,
2013-04-18 18:30:00,69.5,38.3,30.19,West,272,9.0,11.0,32,0.00,,,0.00,Wunderground v.1.15,2013-04-19 01:30:00,
2013-04-18 18:31:00,69.5,38.3,30.19,West,264,13.0,16.0,32,0.00,,,0.00,Wunderground v.1.15,2013-04-19 01:31:00,
2013-04-18 18:33:00,69.5,38.3,30.19,WSW,239,9.0,16.0,32,0.00,,,0.00,Wunderground v.1.15,2013-04-19 01:33:00,
2013-04-18 18:34:00,69.5,38.3,30.19,WSW,253,7.0,16.0,32,0.00,,,0.00,Wunderground v.1.15,2013-04-19 01:34:00,
2013-04-18 18:35:00,69.5,38.3,30.20,WSW,245,10.0,16.0,32,0.00,,,0.00,Wunderground v.1.15,2013-04-19 01:35:00,
2013-04-18 18:36:00,69.6,38.4,30.20,West,264,9.0,16.0,32,0.00,,,0.00,Wunderground v.1.15,2013-04-19 01:36:00,
2013-04-18 18:38:00,69.7,37.7,30.19,WSW,251,8.0,16.0,31,0.00,,,0.00,Wunderground v.1.15,2013-04-19 01:38:00,
2013-04-18 18:39:00,69.7,37.7,30.20,West,263,7.0,16.0,31,0.00,,,0.00,Wunderground v.1.15,2013-04-19 01:39:00,
2013-04-18 18:40:00,69.7,37.7,30.20,West,260,5.0,9.0,31,0.00,,,0.00,Wunderground v.1.15,2013-04-19 01:40:00,
2013-04-18 18:41:00,69.7,37.7,30.20,West,266,6.0,10.0,31,0.00,,,0.00,Wunderground v.1.15,2013-04-19 01:41:00,
2013-04-18 18:43:00,69.7,37.7,30.19,WSW,257,6.0,12.0,31,0.00,,,0.00,Wunderground v.1.15,2013-04-19 01:43:00,
2013-04-18 18:44:00,69.7,37.7,30.19,West,266,8.0,12.0,31,0.00,,,0.00,Wunderground v.1.15,2013-04-19 01:44:00,
2013-04-18 18:45:00,69.6,37.6,30.19,WSW,257,8.0,12.0,31,0.00,,,0.00,Wunderground v.1.15,2013-04-19 01:45:00,
2013-04-18 18:46:00,69.6,37.6,30.20,West,260,9.0,12.0,31,0.00,,,0.00,Wunderground v.1.15,2013-04-19 01:46:00,
2013-04-18 18:48:00,69.6,38.4,30.20,West,263,4.0,12.0,32,0.00,,,0.00,Wunderground v.1.15,2013-04-19 01:48:00,
2013-04-18 18:49:00,69.6,38.4,30.20,WNW,285,7.0,12.0,32,0.00,,,0.00,Wunderground v.1.15,2013-04-19 01:49:00,
2013-04-18 18:50:00,69.6,37.6,30.20,West,266,8.0,9.0,31,0.00,,,0.00,Wunderground v.1.15,2013-04-19 01:50:00,
2013-04-18 18:51:00,69.6,37.6,30.20,West,263,8.0,12.0,31,0.00,,,0.00,Wunderground v.1.15,2013-04-19 01:51:00,
2013-04-18 18:53:00,69.5,37.5,30.20,West,269,10.0,12.0,31,0.00,,,0.00,Wunderground v.1.15,2013-04-19 01:53:00,
2013-04-18 18:55:00,69.4,38.2,30.20,West,266,6.0,12.0,32,0.00,,,0.00,Wunderground v.1.15,2013-04-19 01:55:00,
2013-04-18 18:56:00,69.4,38.2,30.19,WSW,256,8.0,12.0,32,0.00,,,0.00,Wunderground v.1.15,2013-04-19 01:56:00,
2013-04-18 18:58:00,69.4,37.4,30.20,WSW,258,7.0,12.0,31,0.00,,,0.00,Wunderground v.1.15,2013-04-19 01:58:00,
2013-04-18 19:00:00,69.3,37.3,30.20,West,264,7.0,8.0,31,0.00,,,0.00,Wunderground v.1.15,2013-04-19 02:00:00,
2013-04-18 19:01:00,69.4,38.2,30.19,West,264,4.0,8.0,32,0.00,,,0.00,Wunderground v.1.15,2013-04-19 02:01:00,
2013-04-18 19:03:00,69.3,38.2,30.20,WSW,256,8.0,9.0,32,0.00,,,0.00,Wunderground v.1.15,2013-04-19 02:03:00,
2013-04-18 19:05:00,69.3,38.2,30.19,WSW,257,3.0,9.0,32,0.00,,,0.00,Wunderground v.1.15,2013-04-19 02:05:00,
2013-04-18 19:06:00,69.3,38.2,30.19,WSW,258,4.0,9.0,32,0.00,,,0.00,Wunderground v.1.15,2013-04-19 02:06:00,
2013-04-18 19:07:00,69.3,38.2,30.19,WSW,245,8.0,9.0,32,0.00,,,0.00,Wunderground v.1.15,2013-04-19 02:07:00,
2013-04-18 19:09:00,69.2,38.1,30.20,West,260,3.0,10.0,32,0.00,,,0.00,Wunderground v.1.15,2013-04-19 02:09:00,
2013-04-18 19:10:00,69.1,38.8,30.20,WSW,255,5.0,6.0,33,0.00,,,0.00,Wunderground v.1.15,2013-04-19 02:10:00,
2013-04-18 19:11:00,69.1,38.8,30.20,WSW,255,5.0,6.0,33,0.00,,,0.00,Wunderground v.1.15,2013-04-19 02:11:00,
2013-04-18 19:12:00,69.0,38.7,30.20,WSW,247,6.0,8.0,33,0.00,,,0.00,Wunderground v.1.15,2013-04-19 02:12:00,
2013-04-18 19:14:00,68.9,38.6,30.19,WSW,251,5.0,8.0,33,0.00,,,0.00,Wunderground v.1.15,2013-04-19 02:14:00,
2013-04-18 19:16:00,68.8,38.5,30.20,WSW,243,0.0,8.0,33,0.00,,,0.00,Wunderground v.1.15,2013-04-19 02:16:00,
2013-04-18 19:17:00,68.7,39.2,30.19,WSW,243,5.0,8.0,34,0.00,,,0.00,Wunderground v.1.15,2013-04-19 02:17:00,
2013-04-18 19:19:00,68.5,39.8,30.19,WSW,242,3.0,8.0,35,0.00,,,0.00,Wunderground v.1.15,2013-04-19 02:19:00,
2013-04-18 19:21:00,68.4,39.7,30.19,WSW,251,5.0,6.0,35,0.00,,,0.00,Wunderground v.1.15,2013-04-19 02:21:00,
2013-04-18 19:22:00,68.3,40.3,30.19,WSW,247,4.0,7.0,36,0.00,,,0.00,Wunderground v.1.15,2013-04-19 02:22:00,
2013-04-18 19:24:00,67.9,41.3,30.19,WSW,241,7.0,10.0,38,0.00,,,0.00,Wunderground v.1.15,2013-04-19 02:24:00,
2013-04-18 19:26:00,67.6,42.4,30.19,WSW,255,6.0,10.0,40,0.00,,,0.00,Wunderground v.1.15,2013-04-19 02:26:00,
2013-04-18 19:27:00,67.6,42.4,30.19,WSW,247,6.0,10.0,40,0.00,,,0.00,Wunderground v.1.15,2013-04-19 02:27:00,
2013-04-18 19:29:00,67.2,43.3,30.19,WSW,248,6.0,10.0,42,0.00,,,0.00,Wunderground v.1.15,2013-04-19 02:29:00,
2013-04-18 19:31:00,67.0,43.1,30.19,WSW,253,7.0,7.0,42,0.00,,,0.00,Wunderground v.1.15,2013-04-19 02:31:00,
2013-04-18 19:32:00,66.9,43.7,30.19,WSW,249,5.0,8.0,43,0.00,,,0.00,Wunderground v.1.15,2013-04-19 02:32:00,
2013-04-18 19:33:00,66.8,43.6,30.20,WSW,250,7.0,8.0,43,0.00,,,0.00,Wunderground v.1.15,2013-04-19 02:33:00,
2013-04-18 19:34:00,66.6,44.0,30.19,WSW,252,7.0,9.0,44,0.00,,,0.00,Wunderground v.1.15,2013-04-19 02:34:00,
2013-04-18 19:36:00,66.2,44.8,30.19,WSW,244,7.0,11.0,46,0.00,,,0.00,Wunderground v.1.15,2013-04-19 02:36:00,
2013-04-18 19:37:00,66.2,44.8,30.20,WSW,253,5.0,11.0,46,0.00,,,0.00,Wunderground v.1.15,2013-04-19 02:37:00,
2013-04-18 19:38:00,65.9,45.1,30.20,WSW,245,9.0,11.0,47,0.00,,,0.00,Wunderground v.1.15,2013-04-19 02:38:00,
2013-04-18 19:39:00,65.7,44.9,30.19,WSW,241,8.0,12.0,47,0.00,,,0.00,Wunderground v.1.15,2013-04-19 02:39:00,
2013-04-18 19:41:00,65.4,45.2,30.19,WSW,251,9.0,11.0,48,0.00,,,0.00,Wunderground v.1.15,2013-04-19 02:41:00,
2013-04-18 19:42:00,65.4,45.7,30.19,West,259,5.0,11.0,49,0.00,,,0.00,Wunderground v.1.15,2013-04-19 02:42:00,
2013-04-18 19:43:00,65.2,45.5,30.19,WSW,258,7.0,12.0,49,0.00,,,0.00,Wunderground v.1.15,2013-04-19 02:43:00,
2013-04-18 19:44:00,65.1,45.5,30.20,WSW,258,4.0,12.0,49,0.00,,,0.00,Wunderground v.1.15,2013-04-19 02:44:00,
2013-04-18 19:46:00,64.9,45.3,30.20,West,260,4.0,12.0,49,0.00,,,0.00,Wunderground v.1.15,2013-04-19 02:46:00,
2013-04-18 19:47:00,64.9,45.3,30.20,West,259,5.0,12.0,49,0.00,,,0.00,Wunderground v.1.15,2013-04-19 02:47:00,
2013-04-18 19:48:00,64.8,45.7,30.20,WSW,256,4.0,12.0,50,0.00,,,0.00,Wunderground v.1.15,2013-04-19 02:48:00,
2013-04-18 19:49:00,64.7,45.6,30.20,West,260,4.0,12.0,50,0.00,,,0.00,Wunderground v.1.15,2013-04-19 02:49:00,
2013-04-18 19:52:00,64.6,46.1,30.20,West,263,3.0,8.0,51,0.00,,,0.00,Wunderground v.1.15,2013-04-19 02:52:00,
2013-04-18 19:54:00,64.5,46.5,30.20,West,259,5.0,8.0,52,0.00,,,0.00,Wunderground v.1.15,2013-04-19 02:54:00,
2013-04-18 19:55:00,64.4,46.4,30.20,West,261,4.0,8.0,52,0.00,,,0.00,Wunderground v.1.15,2013-04-19 02:55:00,
2013-04-18 19:57:00,64.2,46.2,30.20,WSW,250,6.0,8.0,52,0.00,,,0.00,Wunderground v.1.15,2013-04-19 02:57:00,
2013-04-18 19:59:00,64.1,46.6,30.20,West,266,5.0,8.0,53,0.00,,,0.00,Wunderground v.1.15,2013-04-19 02:59:00,
2013-04-18 20:00:00,64.0,46.5,30.20,West,262,4.0,5.0,53,0.00,,,0.00,Wunderground v.1.15,2013-04-19 03:00:00,
2013-04-18 20:02:00,63.9,46.4,30.20,WSW,255,2.0,9.0,53,0.00,,,0.00,Wunderground v.1.15,2013-04-19 03:02:00,
2013-04-18 20:03:00,63.8,46.3,30.20,WSW,255,3.0,9.0,53,0.00,,,0.00,Wunderground v.1.15,2013-04-19 03:03:00,
2013-04-18 20:04:00,63.8,46.3,30.20,WSW,255,3.0,9.0,53,0.00,,,0.00,Wunderground v.1.15,2013-04-19 03:04:00,
2013-04-18 20:05:00,63.8,45.8,30.20,WSW,255,2.0,9.0,52,0.00,,,0.00,Wunderground v.1.15,2013-04-19 03:05:00,
2013-04-18 20:07:00,63.7,45.7,30.20,WSW,255,2.0,9.0,52,0.00,,,0.00,Wunderground v.1.15,2013-04-19 03:07:00,
2013-04-18 20:08:00,63.7,45.7,30.20,WSW,255,4.0,9.0,52,0.00,,,0.00,Wunderground v.1.15,2013-04-19 03:08:00,
2013-04-18 20:09:00,63.7,46.2,30.20,WSW,253,4.0,9.0,53,0.00,,,0.00,Wunderground v.1.15,2013-04-19 03:09:00,
2013-04-18 20:11:00,63.6,46.1,30.20,WSW,253,3.0,4.0,53,0.00,,,0.00,Wunderground v.1.15,2013-04-19 03:11:00,
2013-04-18 20:12:00,63.5,46.1,30.20,WSW,255,4.0,5.0,53,0.00,,,0.00,Wunderground v.1.15,2013-04-19 03:12:00,
2013-04-18 20:13:00,63.5,46.1,30.20,WSW,255,2.0,5.0,53,0.00,,,0.00,Wunderground v.1.15,2013-04-19 03:13:00,
2013-04-18 20:14:00,63.4,46.5,30.20,WSW,258,3.0,5.0,54,0.00,,,0.00,Wunderground v.1.15,2013-04-19 03:14:00,
2013-04-18 20:16:00,63.3,46.4,30.20,WSW,256,2.0,5.0,54,0.00,,,0.00,Wunderground v.1.15,2013-04-19 03:16:00,
2013-04-18 20:17:00,63.2,46.3,30.20,WSW,258,3.0,5.0,54,0.00,,,0.00,Wunderground v.1.15,2013-04-19 03:17:00,
2013-04-18 20:18:00,63.2,46.3,30.20,WSW,258,3.0,5.0,54,0.00,,,0.00,Wunderground v.1.15,2013-04-19 03:18:00,
2013-04-18 20:19:00,63.1,46.7,30.20,WSW,258,4.0,5.0,55,0.00,,,0.00,Wunderground v.1.15,2013-04-19 03:19:00,
2013-04-18 20:21:00,62.9,46.5,30.20,West,260,4.0,5.0,55,0.00,,,0.00,Wunderground v.1.15,2013-04-19 03:21:00,
2013-04-18 20:22:00,62.7,46.8,30.20,West,263,4.0,5.0,56,0.00,,,0.00,Wunderground v.1.15,2013-04-19 03:22:00,
2013-04-18 20:23:00,62.7,46.8,30.20,West,263,3.0,5.0,56,0.00,,,0.00,Wunderground v.1.15,2013-04-19 03:23:00,
2013-04-18 20:24:00,62.6,46.7,30.20,West,265,4.0,5.0,56,0.00,,,0.00,Wunderground v.1.15,2013-04-19 03:24:00,
2013-04-18 20:25:00,62.5,46.6,30.20,West,266,4.0,5.0,56,0.00,,,0.00,Wunderground v.1.15,2013-04-19 03:25:00,
2013-04-18 20:26:00,62.4,46.5,30.20,West,266,3.0,5.0,56,0.00,,,0.00,Wunderground v.1.15,2013-04-19 03:26:00,
2013-04-18 20:28:00,62.3,46.4,30.20,West,270,5.0,6.0,56,0.00,,,0.00,Wunderground v.1.15,2013-04-19 03:28:00,
2013-04-18 20:29:00,62.1,46.2,30.20,West,270,2.0,6.0,56,0.00,,,0.00,Wunderground v.1.15,2013-04-19 03:29:00,
2013-04-18 20:30:00,62.1,46.2,30.20,West,270,4.0,4.0,56,0.00,,,0.00,Wunderground v.1.15,2013-04-19 03:30:00,
2013-04-18 20:31:00,62.0,46.1,30.20,West,270,3.0,5.0,56,0.00,,,0.00,Wunderground v.1.15,2013-04-19 03:31:00,
2013-04-18 20:33:00,61.9,46.5,30.20,West,270,2.0,5.0,57,0.00,,,0.00,Wunderground v.1.15,2013-04-19 03:33:00,
2013-04-18 20:34:00,61.7,46.3,30.20,West,276,4.0,5.0,57,0.00,,,0.00,Wunderground v.1.15,2013-04-19 03:34:00,
2013-04-18 20:36:00,61.6,46.2,30.21,West,276,2.0,5.0,57,0.00,,,0.00,Wunderground v.1.15,2013-04-19 03:36:00,
2013-04-18 20:38:00,61.4,46.5,30.21,West,276,2.0,5.0,58,0.00,,,0.00,Wunderground v.1.15,2013-04-19 03:38:00,
2013-04-18 20:40:00,61.4,46.5,30.20,West,276,0.0,2.0,58,0.00,,,0.00,Wunderground v.1.15,2013-04-19 03:40:00,
2013-04-18 20:42:00,61.3,46.4,30.20,West,276,0.0,2.0,58,0.00,,,0.00,Wunderground v.1.15,2013-04-19 03:42:00,
2013-04-18 20:43:00,61.3,46.4,30.21,West,276,1.0,3.0,58,0.00,,,0.00,Wunderground v.1.15,2013-04-19 03:43:00,
2013-04-18 20:45:00,61.2,46.3,30.21,West,276,1.0,3.0,58,0.00,,,0.00,Wunderground v.1.15,2013-04-19 03:45:00,
2013-04-18 20:47:00,61.1,46.2,30.21,West,276,0.0,3.0,58,0.00,,,0.00,Wunderground v.1.15,2013-04-19 03:47:00,
2013-04-18 20:48:00,61.1,46.2,30.21,West,276,1.0,3.0,58,0.00,,,0.00,Wunderground v.1.15,2013-04-19 03:48:00,
2013-04-18 20:49:00,61.1,46.2,30.21,West,276,0.0,3.0,58,0.00,,,0.00,Wunderground v.1.15,2013-04-19 03:49:00,
2013-04-18 20:50:00,61.1,46.2,30.21,West,276,0.0,1.0,58,0.00,,,0.00,Wunderground v.1.15,2013-04-19 03:50:00,
2013-04-18 20:52:00,61.0,46.1,30.21,West,276,0.0,1.0,58,0.00,,,0.00,Wunderground v.1.15,2013-04-19 03:52:00,
2013-04-18 20:53:00,61.0,46.1,30.21,West,276,1.0,1.0,58,0.00,,,0.00,Wunderground v.1.15,2013-04-19 03:53:00,
2013-04-18 20:54:00,61.0,46.1,30.21,West,276,2.0,2.0,58,0.00,,,0.00,Wunderground v.1.15,2013-04-19 03:54:00,
2013-04-18 20:55:00,61.0,46.1,30.21,West,276,1.0,3.0,58,0.00,,,0.00,Wunderground v.1.15,2013-04-19 03:55:00,
2013-04-18 20:57:00,60.9,46.0,30.21,West,276,0.0,3.0,58,0.00,,,0.00,Wunderground v.1.15,2013-04-19 03:57:00,
2013-04-18 20:58:00,60.9,46.0,30.21,West,276,1.0,3.0,58,0.00,,,0.00,Wunderground v.1.15,2013-04-19 03:58:00,
2013-04-18 20:59:00,60.9,46.0,30.22,West,276,1.0,3.0,58,0.00,,,0.00,Wunderground v.1.15,2013-04-19 03:59:00,
2013-04-18 21:00:00,60.7,45.8,30.22,West,276,1.0,4.0,58,0.00,,,0.00,Wunderground v.1.15,2013-04-19 04:00:00,
2013-04-18 21:01:00,60.7,45.8,30.21,West,276,1.0,4.0,58,0.00,,,0.00,Wunderground v.1.15,2013-04-19 04:01:00,
2013-04-18 21:06:00,60.3,45.9,30.22,West,276,2.0,4.0,59,0.00,,,0.00,Wunderground v.1.15,2013-04-19 04:06:00,
2013-04-18 21:11:00,59.9,46.0,30.22,West,276,3.0,3.0,60,0.00,,,0.00,Wunderground v.1.15,2013-04-19 04:11:00,
2013-04-18 21:12:00,59.9,46.0,30.22,West,276,1.0,3.0,60,0.00,,,0.00,Wunderground v.1.15,2013-04-19 04:12:00,
2013-04-18 21:16:00,59.6,45.7,30.22,West,276,1.0,4.0,60,0.00,,,0.00,Wunderground v.1.15,2013-04-19 04:16:00,
2013-04-18 21:17:00,59.6,46.1,30.22,West,276,3.0,4.0,61,0.00,,,0.00,Wunderground v.1.15,2013-04-19 04:17:00,
2013-04-18 21:21:00,59.3,45.8,30.22,West,276,2.0,4.0,61,0.00,,,0.00,Wunderground v.1.15,2013-04-19 04:21:00,
2013-04-18 21:22:00,59.2,45.8,30.22,West,276,1.0,4.0,61,0.00,,,0.00,Wunderground v.1.15,2013-04-19 04:22:00,
2013-04-18 21:26:00,59.0,46.0,30.22,West,276,0.0,4.0,62,0.00,,,0.00,Wunderground v.1.15,2013-04-19 04:26:00,
2013-04-18 21:27:00,59.0,46.0,30.22,West,276,0.0,4.0,62,0.00,,,0.00,Wunderground v.1.15,2013-04-19 04:27:00,
2013-04-18 21:31:00,58.8,45.8,30.23,West,276,0.0,2.0,62,0.00,,,0.00,Wunderground v.1.15,2013-04-19 04:31:00,
2013-04-18 21:32:00,58.8,45.8,30.23,West,276,1.0,2.0,62,0.00,,,0.00,Wunderground v.1.15,2013-04-19 04:32:00,
2013-04-18 21:36:00,58.8,45.8,30.23,West,276,1.0,3.0,62,0.00,,,0.00,Wunderground v.1.15,2013-04-19 04:36:00,
2013-04-18 21:37:00,58.7,45.7,30.22,West,276,0.0,3.0,62,0.00,,,0.00,Wunderground v.1.15,2013-04-19 04:37:00,
2013-04-18 21:38:00,58.8,45.8,30.22,West,276,0.0,3.0,62,0.00,,,0.00,Wunderground v.1.15,2013-04-19 04:38:00,
2013-04-18 21:41:00,58.7,45.7,30.22,West,276,1.0,2.0,62,0.00,,,0.00,Wunderground v.1.15,2013-04-19 04:41:00,
2013-04-18 21:42:00,58.6,45.6,30.23,West,276,0.0,2.0,62,0.00,,,0.00,Wunderground v.1.15,2013-04-19 04:42:00,
2013-04-18 21:43:00,58.6,45.6,30.22,West,276,1.0,2.0,62,0.00,,,0.00,Wunderground v.1.15,2013-04-19 04:43:00,
2013-04-18 21:46:00,58.5,45.5,30.23,West,276,0.0,2.0,62,0.00,,,0.00,Wunderground v.1.15,2013-04-19 04:46:00,
2013-04-18 21:47:00,58.5,45.5,30.23,West,276,0.0,2.0,62,0.00,,,0.00,Wunderground v.1.15,2013-04-19 04:47:00,
2013-04-18 21:48:00,58.5,45.5,30.23,West,276,0.0,2.0,62,0.00,,,0.00,Wunderground v.1.15,2013-04-19 04:48:00,
2013-04-18 21:51:00,58.4,45.4,30.23,West,276,0.0,0.0,62,0.00,,,0.00,Wunderground v.1.15,2013-04-19 04:51:00,
2013-04-18 21:52:00,58.4,45.4,30.23,West,276,0.0,0.0,62,0.00,,,0.00,Wunderground v.1.15,2013-04-19 04:52:00,
2013-04-18 21:53:00,58.4,45.4,30.23,West,276,0.0,0.0,62,0.00,,,0.00,Wunderground v.1.15,2013-04-19 04:53:00,
2013-04-18 21:57:00,58.3,45.3,30.23,West,276,0.0,0.0,62,0.00,,,0.00,Wunderground v.1.15,2013-04-19 04:57:00,
2013-04-18 21:58:00,58.2,45.2,30.23,West,276,0.0,0.0,62,0.00,,,0.00,Wunderground v.1.15,2013-04-19 04:58:00,
2013-04-18 22:02:00,58.1,45.1,30.23,West,276,0.0,0.0,62,0.00,,,0.00,Wunderground v.1.15,2013-04-19 05:02:00,
2013-04-18 22:03:00,58.0,45.0,30.23,West,276,0.0,0.0,62,0.00,,,0.00,Wunderground v.1.15,2013-04-19 05:03:00,
2013-04-18 22:04:00,58.0,45.5,30.23,West,276,0.0,0.0,63,0.00,,,0.00,Wunderground v.1.15,2013-04-19 05:04:00,
2013-04-18 22:07:00,57.9,45.4,30.23,West,276,0.0,0.0,63,0.00,,,0.00,Wunderground v.1.15,2013-04-19 05:07:00,
2013-04-18 22:08:00,57.9,45.4,30.23,West,276,0.0,0.0,63,0.00,,,0.00,Wunderground v.1.15,2013-04-19 05:08:00,
2013-04-18 22:09:00,57.9,45.0,30.23,West,276,0.0,0.0,62,0.00,,,0.00,Wunderground v.1.15,2013-04-19 05:09:00,
2013-04-18 22:13:00,57.9,45.0,30.23,West,276,0.0,0.0,62,0.00,,,0.00,Wunderground v.1.15,2013-04-19 05:13:00,
2013-04-18 22:14:00,57.9,44.5,30.23,West,276,0.0,0.0,61,0.00,,,0.00,Wunderground v.1.15,2013-04-19 05:14:00,
2013-04-18 22:18:00,58.0,44.6,30.23,West,276,2.0,2.0,61,0.00,,,0.00,Wunderground v.1.15,2013-04-19 05:18:00,
2013-04-18 22:19:00,58.0,44.6,30.23,West,276,2.0,3.0,61,0.00,,,0.00,Wunderground v.1.15,2013-04-19 05:19:00,
2013-04-18 22:20:00,58.0,44.6,30.23,West,276,2.0,3.0,61,0.00,,,0.00,Wunderground v.1.15,2013-04-19 05:20:00,
2013-04-18 22:23:00,57.9,44.5,30.23,West,276,2.0,3.0,61,0.00,,,0.00,Wunderground v.1.15,2013-04-19 05:23:00,
2013-04-18 22:24:00,57.9,44.5,30.23,West,276,2.0,3.0,61,0.00,,,0.00,Wunderground v.1.15,2013-04-19 05:24:00,
2013-04-18 22:25:00,57.9,44.5,30.23,West,276,0.0,3.0,61,0.00,,,0.00,Wunderground v.1.15,2013-04-19 05:25:00,
2013-04-18 22:28:00,57.5,45.0,30.23,West,276,2.0,3.0,63,0.00,,,0.00,Wunderground v.1.15,2013-04-19 05:28:00,
2013-04-18 22:29:00,57.4,44.9,30.23,West,276,2.0,3.0,63,0.00,,,0.00,Wunderground v.1.15,2013-04-19 05:29:00,
2013-04-18 22:30:00,57.2,45.1,30.23,West,277,3.0,4.0,64,0.00,,,0.00,Wunderground v.1.15,2013-04-19 05:30:00,
2013-04-18 22:33:00,56.7,44.7,30.23,West,278,3.0,5.0,64,0.00,,,0.00,Wunderground v.1.15,2013-04-19 05:33:00,
2013-04-18 22:34:00,56.6,44.6,30.23,West,278,2.0,5.0,64,0.00,,,0.00,Wunderground v.1.15,2013-04-19 05:34:00,
2013-04-18 22:35:00,56.6,44.6,30.23,West,278,3.0,5.0,64,0.00,,,0.00,Wunderground v.1.15,2013-04-19 05:35:00,
2013-04-18 22:38:00,56.4,44.8,30.23,West,278,1.0,5.0,65,0.00,,,0.00,Wunderground v.1.15,2013-04-19 05:38:00,
2013-04-18 22:39:00,56.4,44.8,30.23,West,278,1.0,5.0,65,0.00,,,0.00,Wunderground v.1.15,2013-04-19 05:39:00,
2013-04-18 22:40:00,56.4,44.8,30.23,West,278,0.0,2.0,65,0.00,,,0.00,Wunderground v.1.15,2013-04-19 05:40:00,
2013-04-18 22:44:00,56.0,44.8,30.23,West,278,2.0,3.0,66,0.00,,,0.00,Wunderground v.1.15,2013-04-19 05:44:00,
2013-04-18 22:45:00,56.0,44.8,30.22,West,278,2.0,3.0,66,0.00,,,0.00,Wunderground v.1.15,2013-04-19 05:45:00,
2013-04-18 22:49:00,55.3,44.1,30.22,West,279,1.0,4.0,66,0.00,,,0.00,Wunderground v.1.15,2013-04-19 05:49:00,
2013-04-18 22:50:00,55.3,44.1,30.22,West,278,2.0,3.0,66,0.00,,,0.00,Wunderground v.1.15,2013-04-19 05:50:00,
2013-04-18 22:55:00,54.8,43.7,30.22,West,279,0.0,4.0,66,0.00,,,0.00,Wunderground v.1.15,2013-04-19 05:55:00,
2013-04-18 23:00:00,54.7,43.6,30.22,West,278,0.0,1.0,66,0.00,,,0.00,Wunderground v.1.15,2013-04-19 06:00:00,
2013-04-18 23:01:00,54.7,44.0,30.22,West,279,0.0,1.0,67,0.00,,,0.00,Wunderground v.1.15,2013-04-19 06:01:00,
2013-04-18 23:05:00,54.7,44.0,30.22,West,279,0.0,1.0,67,0.00,,,0.00,Wunderground v.1.15,2013-04-19 06:05:00,
2013-04-18 23:06:00,54.8,44.0,30.22,West,278,0.0,1.0,67,0.00,,,0.00,Wunderground v.1.15,2013-04-19 06:06:00,
2013-04-18 23:10:00,55.0,44.2,30.22,West,279,0.0,0.0,67,0.00,,,0.00,Wunderground v.1.15,2013-04-19 06:10:00,
2013-04-18 23:11:00,55.0,44.2,30.22,West,279,0.0,0.0,67,0.00,,,0.00,Wunderground v.1.15,2013-04-19 06:11:00,
2013-04-18 23:15:00,55.0,44.2,30.22,West,279,0.0,0.0,67,0.00,,,0.00,Wunderground v.1.15,2013-04-19 06:15:00,
2013-04-18 23:16:00,55.0,43.8,30.22,West,279,0.0,0.0,66,0.00,,,0.00,Wunderground v.1.15,2013-04-19 06:16:00,
2013-04-18 23:20:00,55.0,44.2,30.22,West,279,0.0,0.0,67,0.00,,,0.00,Wunderground v.1.15,2013-04-19 06:20:00,
2013-04-18 23:21:00,55.0,44.2,30.22,West,279,0.0,0.0,67,0.00,,,0.00,Wunderground v.1.15,2013-04-19 06:21:00,
2013-04-18 23:22:00,55.0,44.2,30.22,West,279,0.0,0.0,67,0.00,,,0.00,Wunderground v.1.15,2013-04-19 06:22:00,
2013-04-18 23:25:00,54.7,44.0,30.22,West,279,0.0,1.0,67,0.00,,,0.00,Wunderground v.1.15,2013-04-19 06:25:00,
2013-04-18 23:26:00,54.5,44.2,30.23,West,279,0.0,1.0,68,0.00,,,0.00,Wunderground v.1.15,2013-04-19 06:26:00,
2013-04-18 23:27:00,54.4,44.1,30.22,West,278,0.0,1.0,68,0.00,,,0.00,Wunderground v.1.15,2013-04-19 06:27:00,
2013-04-18 23:30:00,54.1,43.8,30.23,West,279,0.0,0.0,68,0.00,,,0.00,Wunderground v.1.15,2013-04-19 06:30:00,
2013-04-18 23:31:00,54.1,44.2,30.23,West,279,0.0,1.0,69,0.00,,,0.00,Wunderground v.1.15,2013-04-19 06:31:00,
2013-04-18 23:32:00,53.9,44.0,30.23,West,279,0.0,1.0,69,0.00,,,0.00,Wunderground v.1.15,2013-04-19 06:32:00,
2013-04-18 23:36:00,53.7,43.8,30.23,West,279,0.0,1.0,69,0.00,,,0.00,Wunderground v.1.15,2013-04-19 06:36:00,
2013-04-18 23:37:00,53.7,44.1,30.23,West,278,0.0,1.0,70,0.00,,,0.00,Wunderground v.1.15,2013-04-19 06:37:00,
2013-04-18 23:38:00,53.6,44.0,30.23,West,279,0.0,1.0,70,0.00,,,0.00,Wunderground v.1.15,2013-04-19 06:38:00,
2013-04-18 23:41:00,53.5,44.0,30.23,West,279,1.0,2.0,70,0.00,,,0.00,Wunderground v.1.15,2013-04-19 06:41:00,
2013-04-18 23:42:00,53.4,43.9,30.23,West,279,0.0,2.0,70,0.00,,,0.00,Wunderground v.1.15,2013-04-19 06:42:00,
2013-04-18 23:44:00,53.4,43.9,30.23,West,279,1.0,2.0,70,0.00,,,0.00,Wunderground v.1.15,2013-04-19 06:44:00,
2013-04-18 23:46:00,53.3,43.8,30.23,West,279,1.0,3.0,70,0.00,,,0.00,Wunderground v.1.15,2013-04-19 06:46:00,
2013-04-18 23:47:00,53.3,43.8,30.23,West,278,2.0,3.0,70,0.00,,,0.00,Wunderground v.1.15,2013-04-19 06:47:00,
2013-04-18 23:49:00,53.2,43.7,30.23,West,279,3.0,3.0,70,0.00,,,0.00,Wunderground v.1.15,2013-04-19 06:49:00,
2013-04-18 23:51:00,53.2,43.7,30.23,West,279,2.0,4.0,70,0.00,,,0.00,Wunderground v.1.15,2013-04-19 06:51:00,
2013-04-18 23:52:00,53.1,43.6,30.23,West,279,1.0,4.0,70,0.00,,,0.00,Wunderground v.1.15,2013-04-19 06:52:00,
2013-04-18 23:54:00,53.1,43.6,30.23,West,278,0.0,4.0,70,0.00,,,0.00,Wunderground v.1.15,2013-04-19 06:54:00,
2013-04-18 23:56:00,53.0,43.5,30.23,West,279,1.0,4.0,70,0.00,,,0.00,Wunderground v.1.15,2013-04-19 06:56:00,
2013-04-18 23:57:00,52.9,43.4,30.23,West,278,1.0,4.0,70,0.00,,,0.00,Wunderground v.1.15,2013-04-19 06:57:00,
2013-04-18 23:58:00,52.9,43.4,30.23,West,279,1.0,4.0,70,0.00,,,0.00,Wunderground v.1.15,2013-04-19 06:58:00,
2013-04-18 23:59:00,52.7,43.2,30.23,West,279,1.0,4.0,70,0.00,,,0.00,Wunderground v.1.15,2013-04-19 06:59:00,